Αναφορές METAR Αεροδρομίων

 

LGTS - THESSALONIKI - GREECE
Ενημερώθηκε: 24/02/2019 07:20
Μερικώς νεφελώδης
Μερικώς νεφελώδης
 Ανεμος από Β
Ανεμος: Β 11 km/h
Θερμοκρασία: 0°C
Wind Chill: -4°C
Σημ. Δρόσου: -6°C
Υγρασία: 64%
Βαρόμετρο: 1032 hPa
Clouds: Μερικώς νεφελώδης
Visibility: 10 km
Cloud details: Μερικώς νεφελώδης 610 m
2019/02/24 05:20 LGTS 240520Z 36006KT 9999 SCT020 00/M06 Q1032 NOSIG
LGLR - LARTISA - GREECE
Ενημερώθηκε: 24/02/2019 06:50
Συννεφιά
Συννεφιά
 Ανεμος από Β
Ανεμος: Β 26 km/h
Θερμοκρασία: 0°C
Wind Chill: -6°C
Σημ. Δρόσου: -5°C
Υγρασία: 69%
Βαρόμετρο: 1030 hPa
Clouds: Συννεφιά
Visibility: 10 km
Cloud details: Αραιές Νεφώσεις 305 m
Μερικώς νεφελώδης 762 m
Συννεφιά 2438 m
2019/02/24 04:50 LGLR 240450Z 01014KT 9999 FEW010 SCT025 OVC080 M00/M05 Q1030 BLU
 
LGKZ - KOZANI - GREECE
Ενημερώθηκε: 24/02/2019 07:50
Σχεδόν νεφελώδης
Σχεδόν νεφελώδης
 Ανεμος από ΒΔ
Ανεμος: ΒΔ 26 km/h
Θερμοκρασία: -6°C
Wind Chill: -14°C
Σημ. Δρόσου: -10°C
Υγρασία: 74%
Βαρόμετρο: 1029 hPa
Clouds: Σχεδόν νεφελώδης
Visibility: 10 km
Cloud details: Μερικώς νεφελώδης 762 m
Σχεδόν νεφελώδης 2134 m
2019/02/24 05:50 LGKZ 240550Z 31014KT 9999 SCT025 BKN070 M06/M10 Q1029
LGKV - KAVALA - GREECE
Ενημερώθηκε: 24/02/2019 07:50
Συννεφιά
Συννεφιά
 Ανεμος από ΒΑ
Ανεμος: ΒΑ 17 km/h
Θερμοκρασία: 0°C
Wind Chill: -4°C
Σημ. Δρόσου: -13°C
Υγρασία: 37%
Βαρόμετρο: 1032 hPa
Clouds: Συννεφιά
Visibility: 10 km
Cloud details: Αραιές Νεφώσεις 1219 m
Συννεφιά 2134 m
2019/02/24 05:50 LGKV 240550Z 04009KT 9999 FEW040 OVC070 00/M13 Q1032
 
LGIO - IOANNINA - GREECE
Ενημερώθηκε: 23/02/2019 19:50
NOT Current
Σχεδόν νεφελώδης
Σχεδόν νεφελώδης
 Ανεμος από varies
Ανεμος: varies 0 km/h
Θερμοκρασία: 2°C
Σημ. Δρόσου: -12°C
Υγρασία: 35%
Βαρόμετρο: 1018 hPa
Clouds: Σχεδόν νεφελώδης
Visibility: 10 km
Cloud details: Μερικώς νεφελώδης 914 m
Σχεδόν νεφελώδης 2438 m
2019/02/23 17:50 LGIO 231750Z /////KT 9999 SCT030 BKN080 02/M12 Q1018
LGBL - BOLOS - GREECE
Ενημερώθηκε: 24/02/2019 07:50
Συννεφιά
Συννεφιά
 Ανεμος από ΝΔ
Ανεμος: ΝΔ 11 km/h
Θερμοκρασία: 1°C
Wind Chill: -2°C
Σημ. Δρόσου: 0°C
Υγρασία: 93%
Βαρόμετρο: 1031 hPa
Clouds: Συννεφιά
Visibility: 6 km
Cloud details: Αραιές Νεφώσεις 305 m
Σχεδόν νεφελώδης 762 m
Συννεφιά 2438 m
2019/02/24 05:50 LGBL 240550Z 23006KT 6000 FEW010 BKN025 OVC080 01/M00 Q1031
 
LGMT - MITILINI - GREECE
Ενημερώθηκε: 24/02/2019 07:50
Μερικώς νεφελώδης
Μερικώς νεφελώδης
 Ανεμος από ΒΒΑ
Ανεμος: ΒΒΑ 13 km/h
Θερμοκρασία: 6°C
Wind Chill: 3°C
Σημ. Δρόσου: 2°C
Υγρασία: 76%
Βαρόμετρο: 1025 hPa
Clouds: Μερικώς νεφελώδης
Visibility: 10 km
Cloud details: Μερικώς νεφελώδης 610 m
2019/02/24 05:50 LGMT 240550Z 02007KT 320V060 9999 SCT020 06/02 Q1025
LGAV - ATHENS - GREECE
Ενημερώθηκε: 24/02/2019 07:50
Σχεδόν νεφελώδης
Σχεδόν νεφελώδης
 Ανεμος από Β
Ανεμος: Β 37 km/h, Ριπή: 59 km/h
Θερμοκρασία: 3°C
Wind Chill: -3°C
Σημ. Δρόσου: 0°C
Υγρασία: 81%
Βαρόμετρο: 1025 hPa
Clouds: Σχεδόν νεφελώδης
Visibility: 10 km
Cloud details: Αραιές Νεφώσεις 366 m
Μερικώς νεφελώδης 762 m
Σχεδόν νεφελώδης 1829 m
2019/02/24 05:50 LGAV 240550Z 36020G32KT 9999 FEW012 SCT025 BKN060 03/M00 Q1025 NOS
 
LGRP - RODOS - GREECE
Ενημερώθηκε: 24/02/2019 07:50
Σχεδόν νεφελώδης
Σχεδόν νεφελώδης
 Ανεμος από Α
Ανεμος: Α 17 km/h
Θερμοκρασία: 12°C
Σημ. Δρόσου: 9°C
Υγρασία: 82%
Βαρόμετρο: 1019 hPa
Clouds: Σχεδόν νεφελώδης
Visibility: 10 km
Cloud details: Αραιές Νεφώσεις 305 m
Αραιές Νεφώσεις 549 m
Σχεδόν νεφελώδης 610 m
2019/02/24 05:50 LGRP 240550Z 10009KT 090V150 9999 FEW010 FEW018TCU BKN020 12/09 Q1019 NOSIG
LGIR - HRAKLIO/KRITI - GREECE
Ενημερώθηκε: 24/02/2019 07:50
Σχεδόν νεφελώδης
Σχεδόν νεφελώδης
 Ανεμος από ΝΝΑ
Ανεμος: ΝΝΑ 15 km/h
Θερμοκρασία: 10°C
Wind Chill: 8°C
Σημ. Δρόσου: 7°C
Υγρασία: 82%
Βαρόμετρο: 1016 hPa
Clouds: Σχεδόν νεφελώδης
Visibility: 10 km
Cloud details: Αραιές Νεφώσεις 549 m
Μερικώς νεφελώδης 762 m
Σχεδόν νεφελώδης 2438 m
2019/02/24 05:50 LGIR 240550Z 16008KT 9999 FEW018TCU SCT025 BKN080 10/07 Q1016
 
LGMK - MIKONOS - GREECE
Ενημερώθηκε: 23/02/2019 19:50
NOT Current
Σχεδόν νεφελώδης
Σχεδόν νεφελώδης
 Ανεμος από ΒΑ
Ανεμος: ΒΑ 15 km/h
Θερμοκρασία: 10°C
Wind Chill: 8°C
Σημ. Δρόσου: 8°C
Υγρασία: 88%
Βαρόμετρο: 1015 hPa
Clouds: Σχεδόν νεφελώδης
Visibility: 10 km
Cloud details: Αραιές Νεφώσεις 427 m
Σχεδόν νεφελώδης 1067 m
2019/02/23 17:50 LGMK 231750Z 04008KT 9999 FEW014 BKN035 10/08 Q1015
LGKR - KERKIRA - GREECE
Ενημερώθηκε: 24/02/2019 07:50
Αραιές Νεφώσεις
Αραιές Νεφώσεις
 Ανεμος από ΑΝΑ
Ανεμος: ΑΝΑ 17 km/h
Θερμοκρασία: 8°C
Wind Chill: 5°C
Σημ. Δρόσου: -4°C
Υγρασία: 43%
Βαρόμετρο: 1021 hPa
Clouds: Αραιές Νεφώσεις
Visibility: 10 km
Cloud details: Αραιές Νεφώσεις 1524 m
2019/02/24 05:50 LGKR 240550Z 11009KT 9999 FEW050 08/M04 Q1021 NOSIG